createdAt,value
2017-12-25T00:00:06.492Z,76.46
2017-12-25T00:01:06.508Z,76.56
2017-12-25T00:02:06.253Z,76.18
2017-12-25T00:03:06.539Z,76.37
2017-12-25T00:04:06.549Z,76.08
2017-12-25T00:05:06.289Z,76.18
2017-12-25T00:06:06.355Z,75.99
2017-12-25T00:07:06.596Z,75.99
2017-12-25T00:08:06.334Z,76.08
2017-12-25T00:09:06.628Z,75.99
2017-12-25T00:10:06.366Z,75.99
2017-12-25T00:11:06.383Z,76.18
2017-12-25T00:12:06.394Z,76.18
2017-12-25T00:13:06.409Z,76.18
2017-12-25T00:14:06.427Z,76.08
2017-12-25T00:15:06.445Z,76.37
2017-12-25T00:16:06.731Z,76.18
2017-12-25T00:17:06.470Z,76.27
2017-12-25T00:18:06.756Z,76.27
2017-12-25T00:19:06.495Z,76.08
2017-12-25T00:20:06.800Z,76.08
2017-12-25T00:21:06.809Z,76.18
2017-12-25T00:22:06.816Z,76.18
2017-12-25T00:23:06.554Z,76.37
2017-12-25T00:24:06.844Z,76.18
2017-12-25T00:25:06.862Z,75.79
2017-12-25T00:26:06.875Z,75.99
2017-12-25T00:27:06.890Z,76.27
2017-12-25T00:28:06.921Z,76.37
2017-12-25T00:29:06.920Z,76.08
2017-12-25T00:30:06.933Z,76.18
2017-12-25T00:31:06.961Z,76.37
2017-12-25T00:32:06.961Z,76.08
2017-12-25T00:33:06.702Z,76.08
2017-12-25T00:34:06.716Z,76.27
2017-12-25T00:35:06.735Z,76.37
2017-12-25T00:36:07.024Z,76.27
2017-12-25T00:37:07.038Z,76.27
2017-12-25T00:38:06.776Z,75.99
2017-12-25T00:39:07.063Z,75.6
2017-12-25T00:40:07.081Z,75.42
2017-12-25T00:41:07.098Z,75.79
2017-12-25T00:42:07.113Z,75.79
2017-12-25T00:43:06.849Z,75.89
2017-12-25T00:44:07.142Z,75.99
2017-12-25T00:45:07.164Z,75.89
2017-12-25T00:46:07.170Z,75.7
2017-12-25T00:47:06.908Z,75.42
2017-12-25T00:48:07.195Z,75.89
2017-12-25T00:49:07.213Z,75.79
2017-12-25T00:50:07.225Z,75.89
2017-12-25T00:51:07.241Z,75.89
2017-12-25T00:52:06.981Z,75.42
2017-12-25T00:53:07.270Z,75.89
2017-12-25T00:54:07.336Z,75.42
2017-12-25T00:55:07.021Z,75.13
2017-12-25T00:56:07.045Z,75.51
2017-12-25T00:57:07.328Z,75.79
2017-12-25T00:58:07.069Z,75.89
2017-12-25T00:59:07.356Z,75.7
2017-12-25T01:00:07.372Z,75.13
2017-12-25T01:01:07.163Z,75.89
2017-12-25T01:02:07.400Z,75.89
2017-12-25T01:03:07.424Z,75.89
2017-12-25T01:04:07.435Z,75.79
2017-12-25T01:05:07.448Z,75.99
2017-12-25T01:06:07.459Z,75.79
2017-12-25T01:07:07.476Z,75.89
2017-12-25T01:08:07.497Z,75.23
2017-12-25T01:09:07.503Z,75.32
2017-12-25T01:10:07.244Z,75.6
2017-12-25T01:11:07.581Z,75.42
2017-12-25T01:12:07.550Z,75.7
2017-12-25T01:13:07.582Z,75.32
2017-12-25T01:14:07.583Z,75.42
2017-12-25T01:15:07.316Z,75.13
2017-12-25T01:16:07.382Z,75.42
2017-12-25T01:17:07.622Z,75.38
2017-12-25T01:18:07.364Z,75.04
2017-12-25T01:19:07.378Z,75.13
2017-12-25T01:20:07.390Z,74.84
2017-12-25T01:21:07.455Z,75.38
2017-12-25T01:22:07.695Z,75.32
2017-12-25T01:23:07.708Z,75.32
2017-12-25T01:24:07.447Z,75.23
2017-12-25T01:25:07.737Z,75.42
2017-12-25T01:26:07.811Z,75.04
2017-12-25T01:27:07.500Z,75.42
2017-12-25T01:28:07.506Z,75.42
2017-12-25T01:29:07.794Z,74.84
2017-12-25T01:30:07.810Z,75.04
2017-12-25T01:31:07.550Z,75.04
2017-12-25T01:32:07.842Z,75.13
2017-12-25T01:33:07.854Z,75.13
2017-12-25T01:34:07.595Z,74.94
2017-12-25T01:35:07.892Z,75.42
2017-12-25T01:36:07.625Z,75.42
2017-12-25T01:37:07.918Z,75.13
2017-12-25T01:38:07.927Z,74.84
2017-12-25T01:39:07.666Z,75.23
2017-12-25T01:40:07.956Z,75.23
2017-12-25T01:41:07.971Z,74.65
2017-12-25T01:42:07.712Z,74.65
2017-12-25T01:43:08.001Z,74.46
2017-12-25T01:44:07.742Z,74.84
2017-12-25T01:45:08.038Z,74.84
2017-12-25T01:46:08.044Z,74.65
2017-12-25T01:47:08.064Z,74.75
2017-12-25T01:48:08.082Z,74.84
2017-12-25T01:49:08.088Z,74.56
2017-12-25T01:50:08.109Z,74.65
2017-12-25T01:51:08.119Z,74.46
2017-12-25T01:52:08.141Z,74.84
2017-12-25T01:53:08.144Z,74.46
2017-12-25T01:54:08.165Z,74.65
2017-12-25T01:55:08.179Z,74.65
2017-12-25T01:56:08.191Z,74.75
2017-12-25T01:57:08.205Z,74.75
2017-12-25T01:58:08.226Z,75.32
2017-12-25T01:59:07.959Z,74.84
2017-12-25T02:00:07.976Z,75.42
2017-12-25T02:01:08.264Z,74.94
2017-12-25T02:02:08.277Z,74.84
2017-12-25T02:03:08.019Z,74.65
2017-12-25T02:04:08.309Z,74.84
2017-12-25T02:05:08.321Z,74.84
2017-12-25T02:06:08.338Z,74.65
2017-12-25T02:07:08.355Z,74.52
2017-12-25T02:08:08.364Z,74.94
2017-12-25T02:09:08.380Z,74.46
2017-12-25T02:10:08.395Z,74.56
2017-12-25T02:11:08.414Z,74.84
2017-12-25T02:12:08.150Z,75.13
2017-12-25T02:13:08.444Z,75.13
2017-12-25T02:14:08.454Z,74.94
2017-12-25T02:15:08.195Z,74.94
2017-12-25T02:16:08.485Z,74.94
2017-12-25T02:17:08.500Z,75.04
2017-12-25T02:18:08.239Z,74.8
2017-12-25T02:19:08.249Z,75.04
2017-12-25T02:20:08.541Z,74.8
2017-12-25T02:21:08.279Z,75.04
2017-12-25T02:22:08.569Z,74.43
2017-12-25T02:23:08.308Z,74.46
2017-12-25T02:24:08.598Z,74.84
2017-12-25T02:25:08.660Z,75.04
2017-12-25T02:26:08.628Z,74.52
2017-12-25T02:27:08.366Z,74.56
2017-12-25T02:28:08.658Z,75.13
2017-12-25T02:29:08.743Z,74.94
2017-12-25T02:30:08.692Z,75.04
2017-12-25T02:31:08.703Z,75.09
2017-12-25T02:32:08.720Z,75.04
2017-12-25T02:33:08.738Z,74.46
2017-12-25T02:34:08.471Z,74.65
2017-12-25T02:35:08.487Z,74.71
2017-12-25T02:36:08.780Z,74.75
2017-12-25T02:37:08.787Z,74.56
2017-12-25T02:38:08.835Z,74.71
2017-12-25T02:39:08.818Z,74.65
2017-12-25T02:40:08.840Z,74.71
2017-12-25T02:41:08.849Z,74.94
2017-12-25T02:42:08.590Z,74.84
2017-12-25T02:43:08.890Z,74.71
2017-12-25T02:44:08.892Z,74.65
2017-12-25T02:45:08.902Z,74.71
2017-12-25T02:46:08.921Z,74.65
2017-12-25T02:47:08.945Z,74.52
2017-12-25T02:48:08.952Z,74.84
2017-12-25T02:49:08.967Z,75.13
2017-12-25T02:50:08.978Z,74.9
2017-12-25T02:51:08.991Z,75.42
2017-12-25T02:52:08.784Z,74.84
2017-12-25T02:53:09.022Z,74.56
2017-12-25T02:54:09.041Z,74.8
2017-12-25T02:55:08.776Z,74.65
2017-12-25T02:56:08.799Z,74.84
2017-12-25T02:57:08.803Z,74.65
2017-12-25T02:58:09.092Z,74.8
2017-12-25T02:59:09.112Z,74.56
2017-12-25T03:00:09.123Z,74.52
2017-12-25T03:01:09.135Z,74.8
2017-12-25T03:02:09.152Z,74.43
2017-12-25T03:03:09.165Z,74.52
2017-12-25T03:04:08.909Z,74.52
2017-12-25T03:05:09.200Z,74.46
2017-12-25T03:06:08.935Z,74.84
2017-12-25T03:07:08.954Z,75.19
2017-12-25T03:08:09.236Z,74.8
2017-12-25T03:09:09.254Z,74.62
2017-12-25T03:10:09.268Z,74.62
2017-12-25T03:11:09.282Z,74.62
2017-12-25T03:12:09.304Z,74.71
2017-12-25T03:13:09.311Z,74.62
2017-12-25T03:14:09.052Z,74.8
2017-12-25T03:15:09.065Z,74.52
2017-12-25T03:16:09.355Z,74.8
2017-12-25T03:17:09.369Z,74.8
2017-12-25T03:18:09.383Z,74.62
2017-12-25T03:19:09.404Z,74.71
2017-12-25T03:20:09.415Z,75.09
2017-12-25T03:21:09.151Z,74.8
2017-12-25T03:22:09.441Z,74.71
2017-12-25T03:23:09.183Z,74.8
2017-12-25T03:24:09.474Z,74.52
2017-12-25T03:25:09.486Z,74.71
2017-12-25T03:26:09.497Z,74.9
2017-12-25T03:27:09.238Z,75.09
2017-12-25T03:28:09.529Z,75.19
2017-12-25T03:29:09.545Z,74.8
2017-12-25T03:30:09.560Z,74.8
2017-12-25T03:31:09.580Z,74.43
2017-12-25T03:32:09.361Z,74.9
2017-12-25T03:33:09.601Z,74.99
2017-12-25T03:34:09.666Z,74.99
2017-12-25T03:35:09.629Z,75.09
2017-12-25T03:36:09.370Z,74.71
2017-12-25T03:37:09.660Z,74.8
2017-12-25T03:38:09.673Z,74.71
2017-12-25T03:39:09.417Z,74.99
2017-12-25T03:40:09.427Z,74.52
2017-12-25T03:41:09.720Z,74.8
2017-12-25T03:42:09.460Z,74.71
2017-12-25T03:43:09.749Z,74.43
2017-12-25T03:44:09.761Z,74.8
2017-12-25T03:45:09.502Z,75.28
2017-12-25T03:46:09.795Z,75.38
2017-12-25T03:47:09.809Z,75.38
2017-12-25T03:48:09.818Z,75.09
2017-12-25T03:49:09.831Z,75.19
2017-12-25T03:50:09.572Z,75.38
2017-12-25T03:51:09.864Z,75.57
2017-12-25T03:52:09.652Z,75.38
2017-12-25T03:53:09.632Z,75.57
2017-12-25T03:54:09.638Z,75.19
2017-12-25T03:55:09.920Z,75.47
2017-12-25T03:56:09.673Z,75.09
2017-12-25T03:57:10.006Z,75.57
2017-12-25T03:58:09.687Z,75.28
2017-12-25T03:59:09.979Z,75.38
2017-12-25T04:00:10.004Z,75.57
2017-12-25T04:01:10.019Z,75.38
2017-12-25T04:02:09.796Z,75.57
2017-12-25T04:03:10.056Z,75.38
2017-12-25T04:04:09.775Z,75.57
2017-12-25T04:05:09.789Z,75.47
2017-12-25T04:06:09.802Z,75.57
2017-12-25T04:07:09.867Z,75.57
2017-12-25T04:08:09.834Z,75.09
2017-12-25T04:09:10.123Z,74.9
2017-12-25T04:10:10.139Z,75.09
2017-12-25T04:11:10.159Z,75.19
2017-12-25T04:12:10.168Z,75.57
2017-12-25T04:13:10.182Z,74.62
2017-12-25T04:14:10.195Z,75.28
2017-12-25T04:15:10.208Z,75.09
2017-12-25T04:16:10.223Z,75.38
2017-12-25T04:17:10.604Z,75.57
2017-12-25T04:18:10.257Z,75.57
2017-12-25T04:19:09.991Z,75.38
2017-12-25T04:20:10.280Z,75.28
2017-12-25T04:21:10.021Z,75.19
2017-12-25T04:22:10.312Z,75.09
2017-12-25T04:23:10.050Z,75.09
2017-12-25T04:24:10.340Z,75.28
2017-12-25T04:25:10.080Z,75.38
2017-12-25T04:26:10.370Z,75.38
2017-12-25T04:27:10.115Z,75.47
2017-12-25T04:28:10.120Z,74.71
2017-12-25T04:29:10.409Z,74.43
2017-12-25T04:30:10.426Z,74.52
2017-12-25T04:31:10.165Z,74.99
2017-12-25T04:32:10.505Z,74.71
2017-12-25T04:33:10.471Z,74.62
2017-12-25T04:34:10.488Z,74.8
2017-12-25T04:35:10.496Z,74.99
2017-12-25T04:36:10.510Z,74.99
2017-12-25T04:37:10.578Z,74.62
2017-12-25T04:38:10.550Z,74.62
2017-12-25T04:39:10.280Z,74.52
2017-12-25T04:40:10.575Z,74.99
2017-12-25T04:41:10.583Z,75.09
2017-12-25T04:42:10.599Z,74.9
2017-12-25T04:43:10.613Z,75.09
2017-12-25T04:44:10.628Z,74.52
2017-12-25T04:45:10.645Z,74.99
2017-12-25T04:46:10.384Z,74.8
2017-12-25T04:47:10.673Z,74.8
2017-12-25T04:48:10.409Z,74.43
2017-12-25T04:49:10.700Z,74.71
2017-12-25T04:50:10.711Z,74.71
2017-12-25T04:51:10.734Z,74.52
2017-12-25T04:52:10.744Z,74.71
2017-12-25T04:53:10.758Z,74.8
2017-12-25T04:54:10.778Z,74.52
2017-12-25T04:55:10.949Z,74.62
2017-12-25T04:56:10.804Z,74.99
2017-12-25T04:57:10.541Z,74.8
2017-12-25T04:58:10.835Z,74.99
2017-12-25T04:59:10.842Z,75.09
2017-12-25T05:00:10.859Z,74.99
2017-12-25T05:01:10.876Z,74.99
2017-12-25T05:02:10.888Z,75.19
2017-12-25T05:03:10.906Z,74.62
2017-12-25T05:04:10.917Z,74.43
2017-12-25T05:05:10.929Z,74.62
2017-12-25T05:06:10.669Z,74.71
2017-12-25T05:07:10.691Z,74.62
2017-12-25T05:08:10.978Z,74.62
2017-12-25T05:09:10.988Z,74.71
2017-12-25T05:10:11.010Z,74.8
2017-12-25T05:11:11.016Z,74.9
2017-12-25T05:12:10.757Z,74.52
2017-12-25T05:13:10.769Z,74.9
2017-12-25T05:14:10.784Z,74.99
2017-12-25T05:15:11.072Z,74.62
2017-12-25T05:16:10.813Z,74.43
2017-12-25T05:17:11.105Z,74.62
2017-12-25T05:18:10.839Z,74.62
2017-12-25T05:19:10.856Z,74.71
2017-12-25T05:20:11.145Z,74.62
2017-12-25T05:21:11.168Z,74.62
2017-12-25T05:22:10.903Z,74.71
2017-12-25T05:23:11.189Z,74.9
2017-12-25T05:24:11.203Z,74.52
2017-12-25T05:25:10.946Z,74.8
2017-12-25T05:26:11.235Z,74.71
2017-12-25T05:27:10.967Z,74.8
2017-12-25T05:28:11.263Z,74.71
2017-12-25T05:29:11.274Z,74.62
2017-12-25T05:30:11.014Z,74.62
2017-12-25T05:31:11.304Z,74.71
2017-12-25T05:32:11.319Z,74.62
2017-12-25T05:33:11.055Z,74.71
2017-12-25T05:34:11.345Z,74.71
2017-12-25T05:35:11.085Z,74.52
2017-12-25T05:36:11.376Z,74.71
2017-12-25T05:37:11.111Z,74.71
2017-12-25T05:38:11.408Z,74.8
2017-12-25T05:39:11.419Z,74.99
2017-12-25T05:40:11.507Z,75.09
2017-12-25T05:41:11.449Z,74.62
2017-12-25T05:42:11.461Z,74.62
2017-12-25T05:43:11.476Z,74.8
2017-12-25T05:44:11.491Z,74.9
2017-12-25T05:45:11.504Z,74.52
2017-12-25T05:46:11.518Z,74.71
2017-12-25T05:47:11.534Z,74.71
2017-12-25T05:48:11.545Z,74.99
2017-12-25T05:49:11.561Z,74.99
2017-12-25T05:50:11.302Z,74.71
2017-12-25T05:51:11.591Z,74.9
2017-12-25T05:52:11.608Z,74.8
2017-12-25T05:53:11.623Z,74.71
2017-12-25T05:54:11.648Z,74.43
2017-12-25T05:55:11.678Z,74.8
2017-12-25T05:56:11.661Z,75.09
2017-12-25T05:57:11.675Z,74.52
2017-12-25T05:58:11.734Z,74.71
2017-12-25T05:59:11.708Z,74.71
2017-12-25T06:00:11.441Z,74.99
2017-12-25T06:01:11.459Z,74.8
2017-12-25T06:02:11.748Z,74.71
2017-12-25T06:03:11.766Z,74.99
2017-12-25T06:04:11.499Z,74.62
2017-12-25T06:05:11.789Z,74.62
2017-12-25T06:06:11.805Z,74.71
2017-12-25T06:07:11.819Z,75.09
2017-12-25T06:08:11.832Z,74.71
2017-12-25T06:09:11.855Z,74.9
2017-12-25T06:10:11.590Z,74.62
2017-12-25T06:11:11.877Z,74.62
2017-12-25T06:12:11.906Z,74.71
2017-12-25T06:13:11.905Z,74.99
2017-12-25T06:14:11.918Z,74.52
2017-12-25T06:15:11.940Z,74.8
2017-12-25T06:16:11.965Z,74.52
2017-12-25T06:17:11.683Z,74.71
2017-12-25T06:18:11.980Z,74.8
2017-12-25T06:19:11.995Z,74.8
2017-12-25T06:20:11.727Z,74.9
2017-12-25T06:21:12.016Z,74.8
2017-12-25T06:22:12.041Z,74.99
2017-12-25T06:23:12.048Z,74.14
2017-12-25T06:24:12.061Z,74.62
2017-12-25T06:25:11.800Z,74.04
2017-12-25T06:26:12.090Z,74.24
2017-12-25T06:27:12.104Z,73.95
2017-12-25T06:28:11.843Z,74.33
2017-12-25T06:29:12.133Z,74.43
2017-12-25T06:30:11.875Z,74.52
2017-12-25T06:31:12.159Z,74.24
2017-12-25T06:32:11.898Z,74.33
2017-12-25T06:33:12.194Z,74.62
2017-12-25T06:34:11.929Z,74.33
2017-12-25T06:35:12.222Z,74.04
2017-12-25T06:36:12.235Z,74.14
2017-12-25T06:37:12.250Z,74.04
2017-12-25T06:38:12.261Z,73.85
2017-12-25T06:39:12.001Z,74.8
2017-12-25T06:40:12.015Z,74.43
2017-12-25T06:41:12.302Z,74.52
2017-12-25T06:42:12.044Z,74.62
2017-12-25T06:43:12.332Z,74.14
2017-12-25T06:44:12.345Z,73.85
2017-12-25T06:45:12.085Z,74.14
2017-12-25T06:46:12.100Z,74.24
2017-12-25T06:47:12.390Z,73.85
2017-12-25T06:48:12.457Z,74.14
2017-12-25T06:49:12.143Z,74.14
2017-12-25T06:50:12.156Z,74.14
2017-12-25T06:51:12.451Z,74.43
2017-12-25T06:52:12.185Z,74.52
2017-12-25T06:53:12.524Z,74.43
2017-12-25T06:54:12.489Z,74.24
2017-12-25T06:55:12.228Z,74.14
2017-12-25T06:56:12.519Z,74.14
2017-12-25T06:57:12.529Z,74.04
2017-12-25T06:58:12.601Z,74.04
2017-12-25T06:59:12.563Z,74.04
2017-12-25T07:00:12.579Z,74.14
2017-12-25T07:01:12.313Z,74.24
2017-12-25T07:02:12.610Z,74.24
2017-12-25T07:03:12.671Z,73.95
2017-12-25T07:04:12.356Z,74.24
2017-12-25T07:05:12.645Z,73.95
2017-12-25T07:06:12.659Z,74.14
2017-12-25T07:07:12.399Z,74.33
2017-12-25T07:08:12.692Z,74.24
2017-12-25T07:09:12.703Z,74.24
2017-12-25T07:10:12.716Z,74.24
2017-12-25T07:11:12.730Z,74.14
2017-12-25T07:12:12.746Z,74.24
2017-12-25T07:13:12.483Z,74.04
2017-12-25T07:14:12.776Z,74.24
2017-12-25T07:15:12.788Z,74.14
2017-12-25T07:16:12.805Z,74.24
2017-12-25T07:17:12.817Z,74.33
2017-12-25T07:18:12.890Z,74.24
2017-12-25T07:19:12.847Z,74.24
2017-12-25T07:20:12.857Z,74.24
2017-12-25T07:21:12.878Z,74.33
2017-12-25T07:22:12.890Z,74.33
2017-12-25T07:23:12.950Z,74.14
2017-12-25T07:24:12.915Z,74.14
2017-12-25T07:25:12.932Z,73.85
2017-12-25T07:26:12.668Z,73.66
2017-12-25T07:27:12.683Z,73.66
2017-12-25T07:28:12.980Z,73.57
2017-12-25T07:29:12.714Z,73.76
2017-12-25T07:30:12.726Z,73.66
2017-12-25T07:31:13.017Z,73.66
2017-12-25T07:32:13.032Z,73.95
2017-12-25T07:33:13.143Z,73.85
2017-12-25T07:34:13.069Z,74.14
2017-12-25T07:35:13.076Z,73.66
2017-12-25T07:36:12.810Z,73.95
2017-12-25T07:37:13.099Z,73.57
2017-12-25T07:38:13.165Z,73.57
2017-12-25T07:39:13.129Z,73.47
2017-12-25T07:40:12.866Z,73.85
2017-12-25T07:41:12.882Z,74.43
2017-12-25T07:42:13.175Z,74.14
2017-12-25T07:43:13.188Z,74.14
2017-12-25T07:44:13.199Z,74.33
2017-12-25T07:45:12.937Z,74.04
2017-12-25T07:46:13.228Z,74.24
2017-12-25T07:47:12.967Z,74.33
2017-12-25T07:48:13.255Z,74.24
2017-12-25T07:49:13.273Z,74.33
2017-12-25T07:50:13.288Z,74.04
2017-12-25T07:51:13.297Z,73.85
2017-12-25T07:52:13.316Z,74.04
2017-12-25T07:53:13.098Z,73.66
2017-12-25T07:54:13.339Z,73.66
2017-12-25T07:55:13.355Z,73.47
2017-12-25T07:56:13.368Z,73.66
2017-12-25T07:57:13.110Z,73.66
2017-12-25T07:58:13.448Z,73.66
2017-12-25T07:59:13.422Z,73.66
2017-12-25T08:00:13.464Z,73.38
2017-12-25T08:01:13.440Z,73.47
2017-12-25T08:02:13.457Z,73.66
2017-12-25T08:03:13.522Z,73.66
2017-12-25T08:04:13.484Z,73.76
2017-12-25T08:05:13.503Z,73.85
2017-12-25T08:06:13.511Z,74.04
2017-12-25T08:07:13.251Z,73.95
2017-12-25T08:08:13.542Z,74.04
2017-12-25T08:09:13.558Z,74.04
2017-12-25T08:10:13.573Z,73.66
2017-12-25T08:11:13.306Z,73.66
2017-12-25T08:12:13.595Z,73.66
2017-12-25T08:13:13.334Z,73.47
2017-12-25T08:14:13.623Z,73.66
2017-12-25T08:15:13.639Z,73.66
2017-12-25T08:16:13.389Z,73.85
2017-12-25T08:17:13.669Z,74.14
2017-12-25T08:18:13.689Z,73.38
2017-12-25T08:19:13.699Z,73.66
2017-12-25T08:20:13.710Z,73.47
2017-12-25T08:21:13.724Z,73.66
2017-12-25T08:22:13.740Z,74.14
2017-12-25T08:23:13.758Z,73.85
2017-12-25T08:24:13.765Z,73.95
2017-12-25T08:25:13.782Z,73.85
2017-12-25T08:26:13.851Z,73.28
2017-12-25T08:27:13.809Z,73.19
2017-12-25T08:28:13.550Z,73.57
2017-12-25T08:29:13.840Z,73.57
2017-12-25T08:30:13.852Z,73.57
2017-12-25T08:31:13.593Z,73.57
2017-12-25T08:32:13.895Z,73.76
2017-12-25T08:33:13.896Z,73.85
2017-12-25T08:34:13.909Z,73.76
2017-12-25T08:35:13.933Z,73.76
2017-12-25T08:36:13.934Z,73.57
2017-12-25T08:37:13.952Z,73.38
2017-12-25T08:38:13.983Z,73.47
2017-12-25T08:39:13.982Z,73.66
2017-12-25T08:40:13.994Z,73.85
2017-12-25T08:41:13.730Z,73.66
2017-12-25T08:42:14.027Z,73.95
2017-12-25T08:43:14.039Z,73.95
2017-12-25T08:44:14.055Z,73.57
2017-12-25T08:45:14.065Z,73.66
2017-12-25T08:46:13.802Z,73.66
2017-12-25T08:47:14.097Z,73.66
2017-12-25T08:48:14.108Z,73.57
2017-12-25T08:49:14.126Z,74.04
2017-12-25T08:50:14.136Z,73.57
2017-12-25T08:51:14.148Z,73.66
2017-12-25T08:52:14.169Z,73.57
2017-12-25T08:53:14.176Z,73.85
2017-12-25T08:54:14.191Z,73.85
2017-12-25T08:55:14.219Z,73.85
2017-12-25T08:56:13.948Z,73.57
2017-12-25T08:57:14.234Z,73.76
2017-12-25T08:58:14.250Z,73.28
2017-12-25T08:59:14.263Z,72.9
2017-12-25T09:00:14.278Z,72.9
2017-12-25T09:01:14.295Z,73.57
2017-12-25T09:02:14.314Z,73.47
2017-12-25T09:03:14.321Z,72.9
2017-12-25T09:04:14.334Z,73.28
2017-12-25T09:05:14.348Z,73.19
2017-12-25T09:06:14.362Z,73.19
2017-12-25T09:07:14.379Z,73.38
2017-12-25T09:08:14.391Z,73.47
2017-12-25T09:09:14.411Z,73.38
2017-12-25T09:10:14.419Z,73.19
2017-12-25T09:11:14.433Z,73.66
2017-12-25T09:12:14.451Z,73
2017-12-25T09:13:14.210Z,73.47
2017-12-25T09:14:14.478Z,73.76
2017-12-25T09:15:14.223Z,73.76
2017-12-25T09:16:14.505Z,73.85
2017-12-25T09:17:14.520Z,73.57
2017-12-25T09:18:14.536Z,73.47
2017-12-25T09:19:14.548Z,73.66
2017-12-25T09:20:14.567Z,73.47
2017-12-25T09:21:14.300Z,73.47
2017-12-25T09:22:14.590Z,73.28
2017-12-25T09:23:14.603Z,72.9
2017-12-25T09:24:14.345Z,73.28
2017-12-25T09:25:14.638Z,73.76
2017-12-25T09:26:14.649Z,73.66
2017-12-25T09:27:14.385Z,73.38
2017-12-25T09:28:14.678Z,73.76
2017-12-25T09:29:14.691Z,73.66
2017-12-25T09:30:14.429Z,73.66
2017-12-25T09:31:14.723Z,73.38
2017-12-25T09:32:14.731Z,73.28
2017-12-25T09:33:14.470Z,73.38
2017-12-25T09:34:14.758Z,73.47
2017-12-25T09:35:14.777Z,73.38
2017-12-25T09:36:14.788Z,73.47
2017-12-25T09:37:14.804Z,73.19
2017-12-25T09:38:14.820Z,73.47
2017-12-25T09:39:14.559Z,73.38
2017-12-25T09:40:14.852Z,73.1
2017-12-25T09:41:14.864Z,73.1
2017-12-25T09:42:14.878Z,73.1
2017-12-25T09:43:14.890Z,73.57
2017-12-25T09:44:14.628Z,73.47
2017-12-25T09:45:14.920Z,73.1
2017-12-25T09:46:14.658Z,73.1
2017-12-25T09:47:14.948Z,73.19
2017-12-25T09:48:14.962Z,73.76
2017-12-25T09:49:14.701Z,73.66
2017-12-25T09:50:14.994Z,73.47
2017-12-25T09:51:15.005Z,73.28
2017-12-25T09:52:14.745Z,73.38
2017-12-25T09:53:14.760Z,73.57
2017-12-25T09:54:15.051Z,73.38
2017-12-25T09:55:15.066Z,73.19
2017-12-25T09:56:15.086Z,73.28
2017-12-25T09:57:15.090Z,73.41
2017-12-25T09:58:15.107Z,73.51
2017-12-25T09:59:15.120Z,73.22
2017-12-25T10:00:14.864Z,73.28
2017-12-25T10:01:15.156Z,73.76
2017-12-25T10:02:15.167Z,73.8
2017-12-25T10:03:15.178Z,73.32
2017-12-25T10:04:15.258Z,73.57
2017-12-25T10:05:15.210Z,73.57
2017-12-25T10:06:15.235Z,73.1
2017-12-25T10:07:14.959Z,73.19
2017-12-25T10:08:15.250Z,72.85
2017-12-25T10:09:15.268Z,73.03
2017-12-25T10:10:15.283Z,73.22
2017-12-25T10:11:15.296Z,73.03
2017-12-25T10:12:15.309Z,73.8
2017-12-25T10:13:15.331Z,73.41
2017-12-25T10:14:15.343Z,73.8
2017-12-25T10:15:15.352Z,73.1
2017-12-25T10:16:15.365Z,73
2017-12-25T10:17:15.105Z,73.32
2017-12-25T10:18:15.118Z,73.13
2017-12-25T10:19:15.186Z,73.13
2017-12-25T10:20:15.147Z,72.75
2017-12-25T10:21:15.439Z,73.41
2017-12-25T10:22:15.453Z,73.32
2017-12-25T10:23:15.470Z,73.13
2017-12-25T10:24:15.533Z,73.32
2017-12-25T10:25:15.497Z,72.75
2017-12-25T10:26:15.512Z,73.7
2017-12-25T10:27:15.528Z,73.03
2017-12-25T10:28:15.540Z,72.85
2017-12-25T10:29:15.554Z,73.13
2017-12-25T10:30:15.577Z,73.32
2017-12-25T10:31:15.587Z,73.22
2017-12-25T10:32:15.643Z,73.32
2017-12-25T10:33:15.615Z,73.51
2017-12-25T10:34:15.628Z,72.65
2017-12-25T10:35:15.643Z,72.85
2017-12-25T10:36:15.659Z,72.75
2017-12-25T10:37:15.680Z,73.13
2017-12-25T10:38:15.692Z,72.75
2017-12-25T10:39:15.701Z,72.85
2017-12-25T10:40:15.718Z,73.03
2017-12-25T10:41:15.734Z,72.75
2017-12-25T10:42:15.748Z,72.94
2017-12-25T10:43:15.759Z,72.94
2017-12-25T10:44:15.499Z,72.75
2017-12-25T10:45:15.790Z,73.22
2017-12-25T10:46:15.531Z,72.37
2017-12-25T10:47:15.816Z,72.65
2017-12-25T10:48:15.833Z,72.65
2017-12-25T10:49:15.849Z,72.85
2017-12-25T10:50:15.864Z,72.46
2017-12-25T10:51:15.876Z,72.37
2017-12-25T10:52:15.896Z,71.98
2017-12-25T10:53:15.906Z,71.98
2017-12-25T10:54:16.022Z,72.08
2017-12-25T10:55:15.942Z,72.37
2017-12-25T10:56:15.959Z,71.98
2017-12-25T10:57:15.689Z,72.08
2017-12-25T10:58:15.705Z,72.27
2017-12-25T10:59:15.995Z,72.37
2017-12-25T11:00:16.009Z,71.98
2017-12-25T11:01:16.024Z,72.08
2017-12-25T11:02:16.046Z,71.89
2017-12-25T11:03:16.059Z,72.08
2017-12-25T11:04:16.073Z,72.08
2017-12-25T11:05:16.083Z,72.17
2017-12-25T11:06:15.823Z,72.17
2017-12-25T11:07:16.113Z,72.17
2017-12-25T11:08:16.130Z,72.27
2017-12-25T11:09:16.198Z,72.37
2017-12-25T11:10:16.156Z,72.17
2017-12-25T11:11:16.229Z,72.27
2017-12-25T11:12:16.189Z,72.08
2017-12-25T11:13:16.200Z,72.27
2017-12-25T11:14:16.268Z,72.17
2017-12-25T11:15:16.231Z,72.17
2017-12-25T11:16:16.248Z,72.08
2017-12-25T11:17:15.988Z,72.17
2017-12-25T11:18:16.279Z,72.27
2017-12-25T11:19:16.293Z,72.08
2017-12-25T11:20:16.307Z,72.08
2017-12-25T11:21:16.321Z,72.08
2017-12-25T11:22:16.347Z,71.98
2017-12-25T11:23:16.356Z,71.98
2017-12-25T11:24:16.372Z,72.17
2017-12-25T11:25:16.388Z,72.27
2017-12-25T11:26:16.395Z,72.37
2017-12-25T11:27:16.411Z,72.27
2017-12-25T11:28:16.431Z,72.08
2017-12-25T11:29:16.492Z,72.08
2017-12-25T11:30:16.459Z,72.17
2017-12-25T11:31:16.470Z,72.27
2017-12-25T11:32:16.486Z,72.37
2017-12-25T11:33:16.499Z,72.75
2017-12-25T11:34:16.517Z,72.65
2017-12-25T11:35:16.529Z,72.46
2017-12-25T11:36:16.543Z,72.56
2017-12-25T11:37:16.564Z,72.75
2017-12-25T11:38:16.574Z,72.85
2017-12-25T11:39:16.639Z,72.65
2017-12-25T11:40:16.606Z,72.56
2017-12-25T11:41:16.619Z,72.75
2017-12-25T11:42:16.635Z,72.37
2017-12-25T11:43:16.652Z,72.27
2017-12-25T11:44:16.664Z,72.17
2017-12-25T11:45:16.401Z,71.98
2017-12-25T11:46:16.690Z,72.08
2017-12-25T11:47:16.720Z,72.08
2017-12-25T11:48:16.725Z,71.98
2017-12-25T11:49:16.459Z,72.27
2017-12-25T11:50:16.752Z,72.27
2017-12-25T11:51:16.491Z,72.27
2017-12-25T11:52:16.779Z,71.98
2017-12-25T11:53:16.794Z,71.89
2017-12-25T11:54:16.812Z,71.7
2017-12-25T11:55:16.549Z,71.8
2017-12-25T11:56:16.839Z,72.56
2017-12-25T11:57:16.579Z,72.08
2017-12-25T11:58:16.949Z,72.65
2017-12-25T11:59:16.927Z,71.7
2017-12-25T12:00:16.904Z,72.08
2017-12-25T12:01:16.915Z,71.98
2017-12-25T12:02:16.931Z,71.8
2017-12-25T12:03:16.957Z,71.8
2017-12-25T12:04:16.957Z,72.08
2017-12-25T12:05:16.974Z,71.8
2017-12-25T12:06:16.986Z,71.98
2017-12-25T12:07:17.001Z,71.98
2017-12-25T12:08:17.017Z,71.8
2017-12-25T12:09:17.082Z,71.61
2017-12-25T12:10:17.053Z,71.8
2017-12-25T12:11:17.069Z,71.89
2017-12-25T12:12:16.802Z,72.56
2017-12-25T12:13:17.097Z,72.17
2017-12-25T12:14:17.111Z,71.32
2017-12-25T12:15:17.120Z,71.51
2017-12-25T12:16:17.133Z,71.8
2017-12-25T12:17:17.150Z,71.89
2017-12-25T12:18:17.164Z,72.08
2017-12-25T12:19:16.904Z,71.8
2017-12-25T12:20:17.196Z,71.8
2017-12-25T12:21:17.211Z,72.08
2017-12-25T12:22:17.226Z,71.8
2017-12-25T12:23:17.243Z,71.89
2017-12-25T12:24:17.251Z,72.27
2017-12-25T12:25:17.268Z,72.56
2017-12-25T12:26:17.299Z,71.89
2017-12-25T12:27:17.304Z,72.37
2017-12-25T12:28:17.321Z,72.27
2017-12-25T12:29:17.334Z,72.08
2017-12-25T12:30:17.344Z,72.17
2017-12-25T12:31:17.360Z,71.98
2017-12-25T12:32:17.381Z,72.17
2017-12-25T12:33:17.385Z,72.17
2017-12-25T12:34:17.402Z,72.27
2017-12-25T12:35:17.415Z,72.17
2017-12-25T12:36:17.437Z,71.89
2017-12-25T12:37:17.448Z,72.08
2017-12-25T12:38:17.461Z,72.37
2017-12-25T12:39:17.476Z,72.46
2017-12-25T12:40:17.492Z,72.46
2017-12-25T12:41:17.520Z,71.89
2017-12-25T12:42:17.528Z,72.56
2017-12-25T12:43:17.534Z,71.8
2017-12-25T12:44:17.549Z,72.37
2017-12-25T12:45:17.564Z,72.27
2017-12-25T12:46:17.305Z,72.08
2017-12-25T12:47:17.603Z,72.27
2017-12-25T12:48:17.612Z,72.27
2017-12-25T12:49:17.631Z,72.27
2017-12-25T12:50:17.645Z,72.17
2017-12-25T12:51:17.658Z,72.17
2017-12-25T12:52:17.673Z,72.17
2017-12-25T12:53:17.686Z,72.46
2017-12-25T12:54:17.422Z,71.89
2017-12-25T12:55:17.718Z,72.27